Time;durP1;ratioP1;P1;durP2;ratioP2;P2;SDS_P1;SDS_P2;PMS_P1;PMS_P2;Temp;Humidity;BMP_temperature;BMP_pressure;BME280_temperature;BME280_humidity;BME280_pressure;Samples;Min_cycle;Max_cycle;Signal;HPM_P1;HPM_P2
2022/12/20 00:00:04;;;;;;;5.32;2.30;;;8.40;99.90;;;;;;4994986;28;20093;-41
2022/12/20 00:02:29;;;;;;;4.30;2.20;;;8.40;99.90;;;;;;4996009;28;20038;-39
2022/12/20 00:04:55;;;;;;;4.65;2.05;;;8.50;99.90;;;;;;4993560;28;20049;-39
2022/12/20 00:07:21;;;;;;;4.95;2.17;;;8.50;99.90;;;;;;4998465;28;20038;-37
2022/12/20 00:09:46;;;;;;;4.43;1.98;;;8.50;99.90;;;;;;4991637;28;20069;-37
2022/12/20 00:12:12;;;;;;;5.72;2.25;;;8.50;99.90;;;;;;4992684;28;20080;-37
2022/12/20 00:14:38;;;;;;;4.45;1.88;;;8.50;99.90;;;;;;4993909;28;20034;-37
2022/12/20 00:17:03;;;;;;;3.75;2.35;;;8.60;99.90;;;;;;4999586;28;20176;-56
2022/12/20 00:19:29;;;;;;;3.90;2.00;;;8.60;99.90;;;;;;4991203;28;20034;-37
2022/12/20 00:21:54;;;;;;;4.80;1.95;;;8.70;99.90;;;;;;5000780;28;20037;-38
2022/12/20 00:24:20;;;;;;;3.75;1.80;;;8.70;99.90;;;;;;5001432;28;20042;-38
2022/12/20 00:26:46;;;;;;;4.47;2.13;;;8.70;99.90;;;;;;4995609;28;20049;-39
2022/12/20 00:29:11;;;;;;;5.20;2.08;;;8.60;99.90;;;;;;4998010;28;20034;-39
2022/12/20 00:31:37;;;;;;;4.60;1.58;;;8.70;99.90;;;;;;4996207;28;20050;-38
2022/12/20 00:34:03;;;;;;;7.03;2.00;;;8.70;99.90;;;;;;4996429;28;20073;-37
2022/12/20 00:36:31;;;;;;;5.32;2.25;;;8.70;99.90;;;;;;4998229;28;20042;-38
2022/12/20 00:38:59;;;;;;;4.32;1.58;;;8.60;99.90;;;;;;4989473;28;21078;-37
2022/12/20 00:41:27;;;;;;;4.38;2.10;;;8.60;99.90;;;;;;4975510;28;20061;-37
2022/12/20 00:43:54;;;;;;;4.22;1.88;;;8.60;99.90;;;;;;4997078;28;20711;-37
2022/12/20 00:46:22;;;;;;;3.58;2.05;;;8.60;99.90;;;;;;4997081;28;20026;-37
2022/12/20 00:48:48;;;;;;;4.03;2.03;;;8.60;99.90;;;;;;5006161;28;20101;-39
2022/12/20 00:51:16;;;;;;;3.00;1.92;;;8.60;99.90;;;;;;5003374;28;20213;-39
2022/12/20 00:53:42;;;;;;;5.55;2.05;;;8.60;99.90;;;;;;5004583;28;20045;-39
2022/12/20 00:56:09;;;;;;;4.75;2.00;;;8.50;99.90;;;;;;4997514;28;20059;-37
2022/12/20 00:58:37;;;;;;;5.85;2.42;;;8.50;99.90;;;;;;4995596;28;20125;-37
2022/12/20 01:01:04;;;;;;;4.72;2.17;;;8.50;99.90;;;;;;4996341;28;20057;-37
2022/12/20 01:03:30;;;;;;;5.80;1.83;;;8.50;99.90;;;;;;5002231;28;20101;-38
2022/12/20 01:06:01;;;;;;;7.28;2.15;;;8.40;99.90;;;;;;4994060;28;20046;-39
2022/12/20 01:08:28;;;;;;;4.57;2.25;;;8.40;99.90;;;;;;5007180;28;20045;-37
2022/12/20 01:11:02;;;;;;;4.78;2.15;;;8.40;99.90;;;;;;5000649;28;20045;-37
2022/12/20 01:13:29;;;;;;;4.78;2.17;;;8.30;99.90;;;;;;5002766;28;20042;-38
2022/12/20 01:15:55;;;;;;;3.75;1.95;;;8.30;99.90;;;;;;5004458;28;20064;-37
2022/12/20 01:18:20;;;;;;;3.42;2.13;;;8.30;99.90;;;;;;4989644;28;20034;-37
2022/12/20 01:20:46;;;;;;;7.63;2.28;;;8.30;99.90;;;;;;5005314;28;20046;-37
2022/12/20 01:23:12;;;;;;;4.20;2.30;;;8.30;99.90;;;;;;5005562;28;20042;-39
2022/12/20 01:25:37;;;;;;;4.22;2.00;;;8.30;99.90;;;;;;4999955;28;20045;-38
2022/12/20 01:28:03;;;;;;;3.80;1.98;;;8.30;99.90;;;;;;4984800;28;20041;-38
2022/12/20 01:30:29;;;;;;;4.53;1.90;;;8.30;99.90;;;;;;5001723;28;20037;-37
2022/12/20 01:32:54;;;;;;;4.82;2.13;;;8.30;99.90;;;;;;5000177;28;20037;-37
2022/12/20 01:35:20;;;;;;;5.95;2.17;;;8.30;99.90;;;;;;5008011;28;20046;-37
2022/12/20 01:37:46;;;;;;;6.30;2.03;;;8.30;99.90;;;;;;5007005;28;20042;-38
2022/12/20 01:40:12;;;;;;;4.28;2.05;;;8.40;99.90;;;;;;5003038;28;20046;-43
2022/12/20 01:42:37;;;;;;;3.92;2.08;;;8.40;99.90;;;;;;5004939;28;20038;-38
2022/12/20 01:45:11;;;;;;;3.55;1.95;;;8.40;99.90;;;;;;5008227;28;20549;-38
2022/12/20 01:47:38;;;;;;;3.85;1.60;;;8.40;99.90;;;;;;4998857;28;20113;-38
2022/12/20 01:50:06;;;;;;;3.13;1.75;;;8.40;99.90;;;;;;5004164;28;20480;-38
2022/12/20 01:52:37;;;;;;;5.68;2.08;;;8.40;99.90;;;;;;5000661;28;20038;-38
2022/12/20 01:55:23;;;;;;;3.95;1.58;;;8.40;99.90;;;;;;5005206;28;20041;-38
2022/12/20 01:57:58;;;;;;;4.85;1.90;;;8.50;99.90;;;;;;4997221;28;20410;-38
2022/12/20 02:00:24;;;;;;;7.47;1.50;;;8.40;99.90;;;;;;4995314;28;20093;-37
2022/12/20 02:02:49;;;;;;;3.67;1.40;;;8.50;99.90;;;;;;4997306;28;20030;-39
2022/12/20 02:05:18;;;;;;;4.40;1.60;;;8.60;99.90;;;;;;4996429;28;20050;-39
2022/12/20 02:07:47;;;;;;;3.15;1.50;;;8.60;99.90;;;;;;5004220;28;20077;-38
2022/12/20 02:10:14;;;;;;;6.65;2.10;;;8.70;99.90;;;;;;4993445;28;20521;-38
2022/12/20 02:12:42;;;;;;;3.10;1.55;;;8.80;99.90;;;;;;4994636;28;21071;-38
2022/12/20 02:15:19;;;;;;;3.80;1.55;;;8.90;99.90;;;;;;4998330;28;20052;-39
2022/12/20 02:18:21;;;;;;;3.20;1.42;;;8.90;99.90;;;;;;4999221;28;20037;-38
2022/12/20 02:20:52;;;;;;;3.80;1.67;;;8.90;99.90;;;;;;5001006;28;20047;-37
2022/12/20 02:23:46;;;;;;;3.55;1.52;;;9.00;99.90;;;;;;4996063;28;20711;-38
2022/12/20 02:26:48;;;;;;;6.72;1.50;;;9.10;99.90;;;;;;5002985;28;20038;-38
2022/12/20 02:29:32;;;;;;;3.10;1.10;;;9.20;99.90;;;;;;4994321;28;20149;-37
2022/12/20 02:32:06;;;;;;;1.85;1.05;;;9.40;99.90;;;;;;4995371;28;20128;-38
2022/12/20 02:34:35;;;;;;;4.85;1.77;;;9.40;99.90;;;;;;4995100;28;20049;-40
2022/12/20 02:37:00;;;;;;;3.00;1.40;;;9.50;99.90;;;;;;4998150;28;20553;-37
2022/12/20 02:39:29;;;;;;;4.63;1.20;;;9.50;99.90;;;;;;5000156;28;20052;-38
2022/12/20 02:42:19;;;;;;;4.32;1.30;;;9.60;99.90;;;;;;4994869;28;20042;-42
2022/12/20 02:47:52;;;;;;;4.75;1.77;;;9.50;99.90;;;;;;5000668;28;20057;-38
2022/12/20 02:50:34;;;;;;;4.70;1.35;;;9.50;99.90;;;;;;4999730;28;20064;-38
2022/12/20 02:53:00;;;;;;;3.30;1.30;;;9.50;99.90;;;;;;5000560;28;20046;-44
2022/12/20 02:55:52;;;;;;;4.70;1.40;;;9.40;99.90;;;;;;4982947;28;20067;-38
2022/12/20 02:58:28;;;;;;;2.88;1.50;;;9.40;99.90;;;;;;4997838;28;20499;-43
2022/12/20 03:00:58;;;;;;;4.05;1.65;;;9.30;99.90;;;;;;4995112;28;20035;-41
2022/12/20 03:03:24;;;;;;;5.00;1.67;;;9.30;99.90;;;;;;4994645;28;20049;-51
2022/12/20 03:05:55;;;;;;;3.85;1.90;;;9.30;99.90;;;;;;4996177;28;20084;-38
2022/12/20 03:08:22;;;;;;;4.28;1.85;;;9.30;99.90;;;;;;4977448;28;20038;-38
2022/12/20 03:10:50;;;;;;;3.67;1.80;;;9.30;99.90;;;;;;4996559;28;20178;-37
2022/12/20 03:13:16;;;;;;;5.45;1.85;;;9.20;99.90;;;;;;4993855;28;20045;-52
2022/12/20 03:15:42;;;;;;;5.28;2.05;;;9.20;99.90;;;;;;4993197;28;20049;-38
2022/12/20 03:18:08;;;;;;;6.43;2.30;;;9.20;99.90;;;;;;4995789;28;20514;-40
2022/12/20 03:20:34;;;;;;;3.78;1.83;;;9.20;99.90;;;;;;4997165;28;20034;-38
2022/12/20 03:23:00;;;;;;;5.03;2.00;;;9.20;99.90;;;;;;4997229;28;20049;-39
2022/12/20 03:25:25;;;;;;;5.07;2.40;;;9.20;99.90;;;;;;4998087;28;20035;-37
2022/12/20 03:27:51;;;;;;;3.95;1.88;;;9.20;99.90;;;;;;5000801;28;20033;-37
2022/12/20 03:30:17;;;;;;;6.00;2.03;;;9.20;99.90;;;;;;4997592;28;20073;-38
2022/12/20 03:32:43;;;;;;;5.72;2.28;;;9.10;99.90;;;;;;4982255;28;20041;-38
2022/12/20 03:35:08;;;;;;;5.88;2.30;;;9.20;99.90;;;;;;4991806;28;20135;-38
2022/12/20 03:37:34;;;;;;;4.13;1.90;;;9.10;99.90;;;;;;4994361;28;20034;-39
2022/12/20 03:40:00;;;;;;;4.70;2.03;;;9.10;99.90;;;;;;4989387;28;20038;-40
2022/12/20 03:42:26;;;;;;;3.83;1.92;;;9.10;99.90;;;;;;4987786;28;20045;-38
2022/12/20 03:44:52;;;;;;;4.05;1.92;;;9.10;99.90;;;;;;4996415;28;20034;-38
2022/12/20 03:47:17;;;;;;;4.47;2.40;;;9.10;99.90;;;;;;4996750;28;20116;-39
2022/12/20 03:49:43;;;;;;;3.08;1.88;;;9.10;99.90;;;;;;4994735;28;20438;-37
2022/12/20 03:52:13;;;;;;;4.80;1.98;;;9.10;99.90;;;;;;4963795;28;20045;-38
2022/12/20 03:54:38;;;;;;;5.53;2.10;;;9.10;99.90;;;;;;4996961;28;20431;-37
2022/12/20 03:57:05;;;;;;;3.47;2.08;;;9.10;99.90;;;;;;4995689;28;20081;-37
2022/12/20 03:59:30;;;;;;;6.53;2.42;;;9.10;99.90;;;;;;4999739;28;20498;-37
2022/12/20 04:01:56;;;;;;;5.93;2.40;;;9.10;99.90;;;;;;4994423;28;20089;-39
2022/12/20 04:04:22;;;;;;;6.38;2.75;;;9.10;99.90;;;;;;4997713;28;20474;-38
2022/12/20 04:06:47;;;;;;;3.72;1.92;;;9.00;99.90;;;;;;4992121;28;20062;-37
2022/12/20 04:09:14;;;;;;;3.83;2.10;;;9.00;99.90;;;;;;4997715;28;20501;-38
2022/12/20 04:11:40;;;;;;;5.50;2.50;;;9.00;99.90;;;;;;4991847;28;20058;-38
2022/12/20 04:14:05;;;;;;;6.10;2.60;;;9.10;99.90;;;;;;4996800;28;20081;-37
2022/12/20 04:16:32;;;;;;;4.43;2.58;;;9.00;99.90;;;;;;4991098;28;20049;-38
2022/12/20 04:18:58;;;;;;;5.85;2.15;;;9.00;99.90;;;;;;4996731;28;20399;-38
2022/12/20 04:21:26;;;;;;;5.00;2.28;;;9.00;99.90;;;;;;4990722;28;20048;-40
2022/12/20 04:23:52;;;;;;;6.05;2.45;;;9.00;99.90;;;;;;4981702;28;20737;-39
2022/12/20 04:26:18;;;;;;;4.70;2.30;;;9.00;99.90;;;;;;4997640;28;20038;-40
2022/12/20 04:28:44;;;;;;;5.35;2.58;;;9.00;99.90;;;;;;4994096;28;20038;-39
2022/12/20 04:31:10;;;;;;;4.75;2.17;;;9.10;99.90;;;;;;4993597;28;20041;-39
2022/12/20 04:33:36;;;;;;;4.60;2.38;;;9.10;99.90;;;;;;4974523;28;20499;-39
2022/12/20 04:36:02;;;;;;;3.38;1.90;;;9.00;99.90;;;;;;4997171;28;20117;-39
2022/12/20 04:38:28;;;;;;;5.63;2.22;;;9.10;99.90;;;;;;4993199;28;20428;-39
2022/12/20 04:40:54;;;;;;;3.53;2.00;;;9.10;99.90;;;;;;4999705;28;20057;-39
2022/12/20 04:43:21;;;;;;;3.65;2.05;;;9.20;99.90;;;;;;4996636;28;20041;-39
2022/12/20 04:45:48;;;;;;;4.70;2.28;;;9.30;99.90;;;;;;4973972;28;20037;-38
2022/12/20 04:48:14;;;;;;;3.83;1.90;;;9.30;99.90;;;;;;4993358;28;20511;-39
2022/12/20 04:50:39;;;;;;;3.78;1.90;;;9.40;99.90;;;;;;4996527;28;20050;-39
2022/12/20 04:55:50;;;;;;;4.80;2.00;;;9.40;99.90;;;;;;4998763;28;20227;-39
2022/12/20 04:58:16;;;;;;;6.00;1.90;;;9.40;99.90;;;;;;4997245;28;20530;-39
2022/12/20 05:00:42;;;;;;;4.25;2.00;;;9.40;99.90;;;;;;4995245;28;20503;-39
2022/12/20 05:03:07;;;;;;;4.68;2.35;;;9.50;99.90;;;;;;4997710;28;20042;-39
2022/12/20 05:05:33;;;;;;;3.65;1.63;;;9.50;99.90;;;;;;4991465;28;20084;-49
2022/12/20 05:07:59;;;;;;;3.65;1.50;;;9.50;99.90;;;;;;4995758;28;20044;-39
2022/12/20 05:10:25;;;;;;;3.63;1.90;;;9.50;99.90;;;;;;4993344;28;20630;-39
2022/12/20 05:12:51;;;;;;;4.85;1.80;;;9.50;99.90;;;;;;4994612;28;20363;-38
2022/12/20 05:15:16;;;;;;;4.95;1.50;;;9.50;99.90;;;;;;4996378;28;20344;-39
2022/12/20 05:17:42;;;;;;;2.60;1.33;;;9.50;99.90;;;;;;4994684;28;20030;-39
2022/12/20 05:20:08;;;;;;;4.13;1.60;;;9.50;99.90;;;;;;4995753;28;20279;-39
2022/12/20 05:28:02;;;;;;;4.80;1.70;;;9.50;99.90;;;;;;4997844;28;20507;-39
2022/12/20 05:30:28;;;;;;;4.82;2.20;;;9.50;99.90;;;;;;4991111;28;20045;-39
2022/12/20 05:32:54;;;;;;;3.42;1.67;;;9.50;99.90;;;;;;4990125;28;20782;-38
2022/12/20 05:35:20;;;;;;;3.92;1.70;;;9.50;99.90;;;;;;5000542;28;20396;-39
2022/12/20 05:37:45;;;;;;;5.18;1.73;;;9.50;99.90;;;;;;4999174;28;20096;-38
2022/12/20 05:40:11;;;;;;;5.38;1.92;;;9.40;99.90;;;;;;4995427;28;20462;-39
2022/12/20 05:42:37;;;;;;;2.70;1.40;;;9.40;99.90;;;;;;5006688;28;20498;-39
2022/12/20 05:45:04;;;;;;;2.78;1.60;;;9.40;99.90;;;;;;5000235;28;20124;-39
2022/12/20 05:47:32;;;;;;;5.82;1.92;;;9.40;99.90;;;;;;5001587;28;20054;-39
2022/12/20 05:49:59;;;;;;;4.07;1.90;;;9.40;99.90;;;;;;5001835;28;20125;-47
2022/12/20 05:52:25;;;;;;;4.95;2.00;;;9.40;99.90;;;;;;4998694;28;20042;-40
2022/12/20 05:54:51;;;;;;;3.80;1.88;;;9.50;99.90;;;;;;5000827;28;20048;-39
2022/12/20 05:57:17;;;;;;;4.60;1.90;;;9.50;99.90;;;;;;5000084;28;20117;-39
2022/12/20 05:59:43;;;;;;;4.65;2.10;;;9.40;99.90;;;;;;4996732;28;20036;-38
2022/12/20 06:02:09;;;;;;;4.22;1.77;;;9.50;99.90;;;;;;4994815;28;20034;-38
2022/12/20 06:04:37;;;;;;;5.25;1.80;;;9.50;99.90;;;;;;5000193;28;20057;-39
2022/12/20 06:07:03;;;;;;;7.57;2.88;;;9.50;99.90;;;;;;4999319;28;20061;-40
2022/12/20 06:09:30;;;;;;;4.97;1.77;;;9.50;99.90;;;;;;4986644;28;20038;-38
2022/12/20 06:11:55;;;;;;;4.20;2.03;;;9.50;99.90;;;;;;4996572;28;20108;-40
2022/12/20 06:14:21;;;;;;;3.88;1.98;;;9.50;99.90;;;;;;5000627;28;20042;-39
2022/12/20 06:16:47;;;;;;;5.10;2.30;;;9.50;99.90;;;;;;4979643;28;20053;-38
2022/12/20 06:19:13;;;;;;;5.45;2.05;;;9.50;99.90;;;;;;4999459;28;20068;-39
2022/12/20 06:21:39;;;;;;;4.47;2.22;;;9.50;99.90;;;;;;5000868;28;20041;-39
2022/12/20 06:24:05;;;;;;;5.90;2.15;;;9.50;99.90;;;;;;4995332;28;20038;-41
2022/12/20 06:26:35;;;;;;;3.88;2.38;;;9.50;99.90;;;;;;4996109;28;20041;-39
2022/12/20 06:29:09;;;;;;;4.93;2.72;;;9.40;99.90;;;;;;4997428;28;20038;-39
2022/12/20 06:31:35;;;;;;;5.32;2.03;;;9.40;99.90;;;;;;4984542;28;20118;-38
2022/12/20 06:34:01;;;;;;;5.53;2.15;;;9.40;99.90;;;;;;4986670;28;20046;-41
2022/12/20 06:36:27;;;;;;;5.68;2.70;;;9.30;99.90;;;;;;4997974;28;20084;-39
2022/12/20 06:38:52;;;;;;;4.80;2.55;;;9.40;99.90;;;;;;4997145;28;20061;-39
2022/12/20 06:41:18;;;;;;;5.80;2.63;;;9.30;99.90;;;;;;4994954;28;20087;-39
2022/12/20 06:43:44;;;;;;;5.28;2.28;;;9.40;99.90;;;;;;4991785;28;20030;-40
2022/12/20 06:46:10;;;;;;;5.18;2.67;;;9.40;99.90;;;;;;4998069;28;20072;-39
2022/12/20 06:48:35;;;;;;;7.15;2.92;;;9.40;99.90;;;;;;4994891;28;20082;-39
2022/12/20 06:51:01;;;;;;;6.55;2.30;;;9.40;99.90;;;;;;4995070;28;20046;-39
2022/12/20 06:53:27;;;;;;;5.53;2.33;;;9.40;99.90;;;;;;5000632;28;20099;-40
2022/12/20 06:55:53;;;;;;;5.80;2.47;;;9.40;99.90;;;;;;4991583;28;20042;-38
2022/12/20 06:58:19;;;;;;;8.48;2.70;;;9.40;99.90;;;;;;4999412;28;20046;-39
2022/12/20 07:00:46;;;;;;;6.85;2.95;;;9.40;99.90;;;;;;4991632;28;20492;-44
2022/12/20 07:03:12;;;;;;;7.20;2.60;;;9.40;99.90;;;;;;4990389;28;20229;-39
2022/12/20 07:05:38;;;;;;;8.60;3.03;;;9.40;99.90;;;;;;4998128;28;20046;-42
2022/12/20 07:08:04;;;;;;;4.60;2.42;;;9.40;99.90;;;;;;4996492;28;20129;-41
2022/12/20 07:10:33;;;;;;;6.15;3.10;;;9.40;99.90;;;;;;4993176;28;20141;-39
2022/12/20 07:12:58;;;;;;;5.18;2.80;;;9.40;99.90;;;;;;4995189;28;20113;-43
2022/12/20 07:15:24;;;;;;;6.32;2.80;;;9.40;99.90;;;;;;4991891;28;20113;-38
2022/12/20 07:17:50;;;;;;;4.85;3.15;;;9.40;99.90;;;;;;4993995;28;20035;-38
2022/12/20 07:20:16;;;;;;;6.78;2.92;;;9.50;99.90;;;;;;4996724;28;20053;-39
2022/12/20 07:22:42;;;;;;;5.28;3.08;;;9.40;99.90;;;;;;4998991;28;20045;-38
2022/12/20 07:25:08;;;;;;;5.13;2.88;;;9.40;99.90;;;;;;4995554;28;20108;-39
2022/12/20 07:27:34;;;;;;;4.97;2.88;;;9.40;99.90;;;;;;4989039;28;20049;-38
2022/12/20 07:29:59;;;;;;;7.38;3.10;;;9.50;99.90;;;;;;4997132;28;20424;-39
2022/12/20 07:32:25;;;;;;;6.68;3.03;;;9.50;99.90;;;;;;4992035;28;20153;-39
2022/12/20 07:34:51;;;;;;;5.68;3.17;;;9.40;99.90;;;;;;4994869;28;20619;-38
2022/12/20 07:37:17;;;;;;;7.22;2.60;;;9.40;99.90;;;;;;4990350;28;20050;-39
2022/12/20 07:39:42;;;;;;;5.78;3.25;;;9.40;99.90;;;;;;4992875;28;20049;-40
2022/12/20 07:42:08;;;;;;;6.90;2.50;;;9.40;99.90;;;;;;4973228;28;20057;-39
2022/12/20 07:44:34;;;;;;;8.07;2.33;;;9.40;99.90;;;;;;5000071;28;20073;-39
2022/12/20 07:47:00;;;;;;;4.57;2.00;;;9.30;99.90;;;;;;4993275;28;21474;-40
2022/12/20 07:49:26;;;;;;;6.07;2.72;;;9.30;99.90;;;;;;4997677;28;20049;-39
2022/12/20 07:51:56;;;;;;;5.10;2.55;;;9.40;99.90;;;;;;4994698;28;20089;-39
2022/12/20 07:54:32;;;;;;;5.10;2.17;;;9.40;99.90;;;;;;5000243;28;20124;-39
2022/12/20 07:57:01;;;;;;;5.70;2.15;;;9.40;99.90;;;;;;4997118;28;20050;-39
2022/12/20 07:59:37;;;;;;;5.28;2.25;;;9.40;99.90;;;;;;4996856;28;20776;-38
2022/12/20 08:02:05;;;;;;;5.80;2.30;;;9.40;99.90;;;;;;4985193;28;20045;-38
2022/12/20 08:04:32;;;;;;;7.55;2.47;;;9.40;99.90;;;;;;4998602;28;20562;-40
2022/12/20 08:07:00;;;;;;;4.03;2.00;;;9.50;99.90;;;;;;5009519;28;20102;-38
2022/12/20 08:09:31;;;;;;;4.80;2.42;;;9.50;99.90;;;;;;4999475;28;20084;-39
2022/12/20 08:11:57;;;;;;;4.93;2.30;;;9.50;99.90;;;;;;5001110;28;20092;-39
2022/12/20 08:14:23;;;;;;;4.65;2.20;;;9.50;99.90;;;;;;5005499;28;20049;-39
2022/12/20 08:16:49;;;;;;;5.60;2.10;;;9.50;99.90;;;;;;4995523;28;20034;-39
2022/12/20 08:19:15;;;;;;;4.72;1.90;;;9.50;99.90;;;;;;5000173;28;20070;-39
2022/12/20 08:21:41;;;;;;;4.68;2.08;;;9.50;99.90;;;;;;4990564;28;20042;-39
2022/12/20 08:24:07;;;;;;;4.47;2.10;;;9.50;99.90;;;;;;4993259;28;20102;-44
2022/12/20 08:26:40;;;;;;;4.03;1.67;;;9.60;99.90;;;;;;4998702;28;20046;-39
2022/12/20 08:29:06;;;;;;;5.90;2.08;;;9.60;99.90;;;;;;4997660;28;20546;-40
2022/12/20 08:31:32;;;;;;;3.67;1.80;;;9.70;99.90;;;;;;4995983;28;20168;-39
2022/12/20 08:33:58;;;;;;;4.47;1.42;;;9.70;99.90;;;;;;4997176;28;20471;-39
2022/12/20 08:36:24;;;;;;;3.33;1.52;;;9.80;99.90;;;;;;4993847;28;20410;-39
2022/12/20 08:38:49;;;;;;;4.63;1.52;;;9.70;99.90;;;;;;5005259;28;20069;-39
2022/12/20 08:41:15;;;;;;;5.05;1.60;;;9.80;99.90;;;;;;5000491;28;20558;-48
2022/12/20 08:43:42;;;;;;;4.88;1.75;;;9.80;99.90;;;;;;5000621;28;20095;-39
2022/12/20 08:46:09;;;;;;;5.80;1.63;;;9.90;99.90;;;;;;5001240;28;20586;-39
2022/12/20 08:48:35;;;;;;;3.25;1.40;;;9.90;99.90;;;;;;4992948;28;20054;-39
2022/12/20 08:51:04;;;;;;;3.53;1.65;;;10.00;99.90;;;;;;4973902;28;20096;-40
2022/12/20 08:53:31;;;;;;;5.45;2.05;;;10.00;99.90;;;;;;4998126;28;20192;-40
2022/12/20 08:56:12;;;;;;;4.20;1.48;;;10.00;99.90;;;;;;5001832;28;20054;-39
2022/12/20 08:58:39;;;;;;;5.72;1.48;;;10.00;99.90;;;;;;4995402;28;20038;-39
2022/12/20 09:01:07;;;;;;;3.10;1.38;;;10.00;99.90;;;;;;4990347;28;20045;-39
2022/12/20 09:03:35;;;;;;;5.85;1.65;;;10.00;99.90;;;;;;4992957;28;20042;-39
2022/12/20 09:06:05;;;;;;;4.35;1.75;;;9.90;99.90;;;;;;4992147;28;20935;-39
2022/12/20 09:08:32;;;;;;;3.15;1.45;;;10.00;99.90;;;;;;4996223;28;20411;-40
2022/12/20 09:11:17;;;;;;;3.58;1.65;;;9.90;99.90;;;;;;5002179;28;20077;-39
2022/12/20 09:13:44;;;;;;;3.28;1.40;;;9.90;99.90;;;;;;4986096;28;20096;-43
2022/12/20 09:16:12;;;;;;;4.88;2.00;;;9.90;99.90;;;;;;4993497;28;20039;-39
2022/12/20 09:18:38;;;;;;;2.78;1.50;;;9.90;99.90;;;;;;4993896;28;20102;-36
2022/12/20 09:21:06;;;;;;;4.30;1.52;;;9.80;99.90;;;;;;4979565;28;20038;-37
2022/12/20 09:23:33;;;;;;;4.05;1.80;;;9.80;99.90;;;;;;4998965;28;20574;-40
2022/12/20 09:26:07;;;;;;;3.78;1.60;;;9.90;99.90;;;;;;5004345;28;20033;-41
2022/12/20 09:28:33;;;;;;;7.22;1.88;;;9.90;99.90;;;;;;5002634;28;21017;-38
2022/12/20 09:31:04;;;;;;;5.45;1.50;;;9.90;99.90;;;;;;5003517;28;20048;-39
2022/12/20 09:33:31;;;;;;;3.80;1.52;;;9.90;99.90;;;;;;4994023;28;20045;-38
2022/12/20 09:35:58;;;;;;;4.13;1.60;;;9.80;99.90;;;;;;4982195;28;20112;-38
2022/12/20 09:38:25;;;;;;;4.18;1.80;;;9.80;99.90;;;;;;4991187;28;20042;-39
2022/12/20 09:40:54;;;;;;;5.10;1.70;;;9.80;99.90;;;;;;5001196;28;20044;-38
2022/12/20 09:43:21;;;;;;;3.63;1.42;;;9.80;99.90;;;;;;4997605;28;20141;-39
2022/12/20 09:45:51;;;;;;;3.42;1.45;;;9.80;99.90;;;;;;5002335;28;20096;-39
2022/12/20 09:48:27;;;;;;;3.03;1.38;;;9.80;99.90;;;;;;4993136;28;20065;-39
2022/12/20 09:51:21;;;;;;;4.30;1.42;;;9.80;99.90;;;;;;5002496;28;20034;-38
2022/12/20 09:53:52;;;;;;;4.43;1.60;;;9.80;99.90;;;;;;4997365;28;20503;-39
2022/12/20 09:56:29;;;;;;;2.83;1.63;;;9.80;99.90;;;;;;4996397;28;20050;-39
2022/12/20 09:59:03;;;;;;;6.55;1.55;;;9.80;99.90;;;;;;5003057;28;20046;-39
2022/12/20 10:01:31;;;;;;;3.25;1.60;;;9.90;99.90;;;;;;5000956;28;20076;-38
2022/12/20 10:04:01;;;;;;;3.70;1.90;;;9.90;99.90;;;;;;4989980;28;20459;-40
2022/12/20 10:06:42;;;;;;;2.88;1.48;;;9.90;99.90;;;;;;4992825;28;20159;-39
2022/12/20 10:09:26;;;;;;;5.55;1.55;;;9.90;99.90;;;;;;5005875;28;20076;-39
2022/12/20 10:12:16;;;;;;;3.67;1.65;;;9.90;99.90;;;;;;5001565;28;20081;-40
2022/12/20 10:15:03;;;;;;;3.25;1.50;;;9.90;99.90;;;;;;4996572;28;20093;-39
2022/12/20 10:18:14;;;;;;;3.80;1.08;;;9.90;99.90;;;;;;4994950;28;20046;-47
2022/12/20 10:20:59;;;;;;;5.80;1.60;;;9.90;99.90;;;;;;4951484;28;20070;-40
2022/12/20 10:23:38;;;;;;;4.35;1.67;;;9.90;99.90;;;;;;5004892;28;20050;-39
2022/12/20 10:26:09;;;;;;;4.38;1.48;;;9.90;99.90;;;;;;5001468;28;20100;-39
2022/12/20 10:28:35;;;;;;;4.63;1.50;;;9.90;99.90;;;;;;4990567;28;20038;-39
2022/12/20 10:31:13;;;;;;;3.42;1.90;;;9.90;99.90;;;;;;4998805;28;20038;-40
2022/12/20 10:33:40;;;;;;;4.57;1.50;;;9.90;99.90;;;;;;5001302;28;20085;-39
2022/12/20 10:36:25;;;;;;;5.90;1.38;;;9.90;99.90;;;;;;5007688;28;20049;-39
2022/12/20 10:38:56;;;;;;;2.92;1.20;;;9.90;99.90;;;;;;4993614;28;20042;-39
2022/12/20 10:41:31;;;;;;;4.13;1.55;;;9.90;99.90;;;;;;4997088;28;20104;-41
2022/12/20 10:44:15;;;;;;;8.25;2.25;;;9.90;99.90;;;;;;4997768;28;20430;-40
2022/12/20 10:46:53;;;;;;;3.00;1.42;;;9.90;99.90;;;;;;4996002;28;20461;-39
2022/12/20 10:49:29;;;;;;;3.67;1.50;;;9.90;99.90;;;;;;4991844;28;20050;-40
2022/12/20 10:52:07;;;;;;;3.38;1.20;;;9.90;99.90;;;;;;4994236;28;20524;-39
2022/12/20 10:54:41;;;;;;;2.30;1.02;;;9.90;99.90;;;;;;5006558;28;20038;-39
2022/12/20 10:57:25;;;;;;;3.45;1.77;;;10.00;99.90;;;;;;5005206;28;20410;-39
2022/12/20 10:59:59;;;;;;;5.65;1.50;;;10.00;99.90;;;;;;4999368;28;20384;-41
2022/12/20 11:02:30;;;;;;;3.53;1.38;;;10.10;99.90;;;;;;4992742;28;20034;-39
2022/12/20 11:05:14;;;;;;;4.32;1.30;;;10.10;99.90;;;;;;5000785;28;20368;-38
2022/12/20 11:08:07;;;;;;;2.85;1.40;;;10.20;99.90;;;;;;4994870;28;20488;-39
2022/12/20 11:10:32;;;;;;;3.22;1.23;;;10.10;99.90;;;;;;4992257;28;20092;-39
2022/12/20 11:13:02;;;;;;;3.13;1.30;;;10.20;99.90;;;;;;4995384;28;20061;-38
2022/12/20 11:15:31;;;;;;;3.03;1.20;;;10.20;99.90;;;;;;4994577;28;20045;-40
2022/12/20 11:18:02;;;;;;;2.65;1.10;;;10.20;99.90;;;;;;4998587;28;20501;-39
2022/12/20 11:20:50;;;;;;;2.13;1.10;;;10.30;99.90;;;;;;4986024;28;20104;-39
2022/12/20 11:23:43;;;;;;;2.15;1.00;;;10.30;99.90;;;;;;4991778;28;20157;-38
2022/12/20 11:26:28;;;;;;;3.55;1.25;;;10.30;99.90;;;;;;4999932;28;20365;-38
2022/12/20 11:29:15;;;;;;;3.38;0.85;;;10.30;99.90;;;;;;4996351;28;20045;-38
2022/12/20 11:32:03;;;;;;;5.97;1.00;;;10.30;99.90;;;;;;5000594;28;20407;-38
2022/12/20 11:34:43;;;;;;;4.47;1.23;;;10.30;99.90;;;;;;4999083;28;20499;-39
2022/12/20 11:37:25;;;;;;;2.53;1.23;;;10.30;99.90;;;;;;4995393;28;20050;-38
2022/12/20 11:40:19;;;;;;;3.13;1.30;;;10.30;99.90;;;;;;4993317;28;20042;-39
2022/12/20 11:43:16;;;;;;;2.33;1.17;;;10.30;99.90;;;;;;4996003;28;20064;-39
2022/12/20 11:46:04;;;;;;;4.38;1.45;;;10.30;99.90;;;;;;4992483;28;20128;-38
2022/12/20 11:48:45;;;;;;;3.78;1.52;;;10.30;99.90;;;;;;4989679;28;20133;-40
2022/12/20 11:51:32;;;;;;;4.30;1.48;;;10.40;99.90;;;;;;4994645;28;20069;-53
2022/12/20 11:54:07;;;;;;;3.88;1.25;;;10.40;99.90;;;;;;4987088;28;20046;-41
2022/12/20 11:56:39;;;;;;;5.03;1.10;;;10.40;99.90;;;;;;4992354;28;20799;-39
2022/12/20 11:59:09;;;;;;;3.00;1.48;;;10.40;99.90;;;;;;5000192;28;20088;-39
2022/12/20 12:01:47;;;;;;;3.15;1.08;;;10.40;99.90;;;;;;4989188;28;20053;-39
2022/12/20 12:04:15;;;;;;;1.67;0.90;;;10.40;99.90;;;;;;4983521;28;20491;-51
2022/12/20 12:07:07;;;;;;;2.58;1.13;;;10.40;99.90;;;;;;4999680;28;20085;-39
2022/12/20 12:09:39;;;;;;;4.65;1.52;;;10.40;99.90;;;;;;4992129;28;20053;-39
2022/12/20 12:12:24;;;;;;;2.58;1.10;;;10.40;99.90;;;;;;4983750;28;20147;-40
2022/12/20 12:15:10;;;;;;;3.78;1.23;;;10.40;99.90;;;;;;4989613;28;20068;-39
2022/12/20 12:17:46;;;;;;;3.80;1.50;;;10.40;99.90;;;;;;4985496;28;20054;-40
2022/12/20 12:20:30;;;;;;;2.97;1.50;;;10.40;99.90;;;;;;5000072;28;20038;-38
2022/12/20 12:23:04;;;;;;;3.97;1.30;;;10.40;99.90;;;;;;4994494;28;20675;-40
2022/12/20 12:25:30;;;;;;;2.85;1.50;;;10.50;99.90;;;;;;4993223;28;20545;-38
2022/12/20 12:27:56;;;;;;;5.20;1.75;;;10.50;99.90;;;;;;4989799;28;20411;-38
2022/12/20 12:30:23;;;;;;;5.32;1.80;;;10.50;99.90;;;;;;4999664;28;20375;-39
2022/12/20 12:33:02;;;;;;;6.10;1.90;;;10.50;99.90;;;;;;4993697;28;20557;-39
2022/12/20 12:35:42;;;;;;;5.53;2.08;;;10.50;99.90;;;;;;4981366;28;20526;-40
2022/12/20 12:38:21;;;;;;;4.90;2.20;;;10.50;99.90;;;;;;4989911;28;20573;-38
2022/12/20 12:41:14;;;;;;;5.32;2.03;;;10.50;99.90;;;;;;4995072;28;20038;-38
2022/12/20 12:43:50;;;;;;;5.40;2.03;;;10.50;99.90;;;;;;4991619;28;20488;-38
2022/12/20 12:46:27;;;;;;;5.03;2.20;;;10.50;99.90;;;;;;4995692;28;20034;-39
2022/12/20 12:49:17;;;;;;;6.38;1.90;;;10.50;99.90;;;;;;4990709;28;20065;-38
2022/12/20 12:51:50;;;;;;;2.95;1.52;;;10.50;99.90;;;;;;4998625;28;20030;-40
2022/12/20 12:54:18;;;;;;;4.28;2.03;;;10.50;99.90;;;;;;4978107;28;20050;-39
2022/12/20 12:56:49;;;;;;;3.50;1.65;;;10.50;99.90;;;;;;5002771;28;20044;-39
2022/12/20 12:59:33;;;;;;;4.13;2.10;;;10.50;99.90;;;;;;5001599;28;20045;-38
2022/12/20 13:02:04;;;;;;;4.57;2.15;;;10.60;99.90;;;;;;4988303;28;20042;-39
2022/12/20 13:04:57;;;;;;;6.78;2.05;;;10.60;99.90;;;;;;4999426;28;20441;-38
2022/12/20 13:07:32;;;;;;;4.65;1.88;;;10.60;99.90;;;;;;4999290;28;20049;-38
2022/12/20 13:09:59;;;;;;;4.20;2.00;;;10.50;99.90;;;;;;4991810;28;20046;-38
2022/12/20 13:12:47;;;;;;;4.57;1.88;;;10.60;99.90;;;;;;4989773;28;20049;-39
2022/12/20 13:15:19;;;;;;;3.85;1.80;;;10.60;99.90;;;;;;5000819;28;20056;-40
2022/12/20 13:17:47;;;;;;;2.90;1.00;;;10.60;99.90;;;;;;5002058;28;20653;-38
2022/12/20 13:20:34;;;;;;;4.28;1.73;;;10.60;99.90;;;;;;5002622;28;20746;-39
2022/12/20 13:23:11;;;;;;;6.32;2.30;;;10.60;99.90;;;;;;4999764;28;20042;-39